createdAt,value
2018-11-01T00:01:18.159Z,10.70
2018-11-01T00:03:46.768Z,10.70
2018-11-01T00:06:16.206Z,10.70
2018-11-01T00:08:44.773Z,10.70
2018-11-01T00:11:14.090Z,10.70
2018-11-01T00:13:42.712Z,10.70
2018-11-01T00:16:11.405Z,10.70
2018-11-01T00:18:39.966Z,10.60
2018-11-01T00:21:09.306Z,10.60
2018-11-01T00:23:38.493Z,10.60
2018-11-01T00:26:07.426Z,10.60
2018-11-01T00:28:36.104Z,10.60
2018-11-01T00:31:05.183Z,10.60
2018-11-01T00:33:33.737Z,10.60
2018-11-01T00:36:03.019Z,10.60
2018-11-01T00:38:31.855Z,10.60
2018-11-01T00:41:00.549Z,10.70
2018-11-01T00:43:29.227Z,10.70
2018-11-01T00:45:57.833Z,10.70
2018-11-01T00:48:26.486Z,10.80
2018-11-01T00:50:55.085Z,10.90
2018-11-01T00:53:23.630Z,10.90
2018-11-01T00:55:52.182Z,11.00
2018-11-01T00:58:20.776Z,11.00
2018-11-01T01:00:49.370Z,11.00
2018-11-01T01:03:17.994Z,11.00
2018-11-01T01:05:51.725Z,11.00
2018-11-01T01:08:20.512Z,11.00
2018-11-01T01:10:49.112Z,11.00
2018-11-01T01:13:17.735Z,11.00
2018-11-01T01:15:46.393Z,11.00
2018-11-01T01:18:14.965Z,11.00
2018-11-01T01:20:43.634Z,11.10
2018-11-01T01:23:12.261Z,11.10
2018-11-01T01:25:41.728Z,11.10
2018-11-01T01:28:10.405Z,11.10
2018-11-01T01:30:39.071Z,11.10
2018-11-01T01:33:09.053Z,11.10
2018-11-01T01:35:37.672Z,11.10
2018-11-01T01:38:07.172Z,11.10
2018-11-01T01:40:35.783Z,11.10
2018-11-01T01:43:04.528Z,11.10
2018-11-01T01:45:33.121Z,11.10
2018-11-01T01:48:01.774Z,11.10
2018-11-01T01:50:30.309Z,11.00
2018-11-01T01:52:58.977Z,11.00
2018-11-01T01:55:30.104Z,11.00
2018-11-01T01:57:58.708Z,11.00
2018-11-01T02:00:27.292Z,11.00
2018-11-01T02:03:00.236Z,10.90
2018-11-01T02:05:30.440Z,10.90
2018-11-01T02:07:58.974Z,10.90
2018-11-01T02:10:27.527Z,10.90
2018-11-01T02:12:56.121Z,10.80
2018-11-01T02:15:24.739Z,10.80
2018-11-01T02:17:54.528Z,10.80
2018-11-01T02:20:23.108Z,10.80
2018-11-01T02:22:51.734Z,10.70
2018-11-01T02:25:20.260Z,10.80
2018-11-01T02:27:54.109Z,10.70
2018-11-01T02:30:22.670Z,10.70
2018-11-01T02:32:51.398Z,10.70
2018-11-01T02:35:20.387Z,10.70
2018-11-01T02:37:49.051Z,10.70
2018-11-01T02:40:17.963Z,10.70
2018-11-01T02:42:47.056Z,10.70
2018-11-01T02:45:16.060Z,10.70
2018-11-01T02:47:44.718Z,10.70
2018-11-01T02:50:14.186Z,10.60
2018-11-01T02:52:42.823Z,10.70
2018-11-01T02:55:11.689Z,10.60
2018-11-01T02:57:40.381Z,10.60
2018-11-01T03:00:12.221Z,10.60
2018-11-01T03:02:40.741Z,10.60
2018-11-01T03:05:10.282Z,10.60
2018-11-01T03:07:39.045Z,10.60
2018-11-01T03:10:09.165Z,10.60
2018-11-01T03:12:37.922Z,10.60
2018-11-01T03:15:08.164Z,10.60
2018-11-01T03:17:36.928Z,10.60
2018-11-01T03:20:06.588Z,10.60
2018-11-01T03:22:35.190Z,10.60
2018-11-01T03:25:03.932Z,10.60
2018-11-01T03:27:33.114Z,10.60
2018-11-01T03:30:01.795Z,10.60
2018-11-01T03:32:30.520Z,10.60
2018-11-01T03:34:59.218Z,10.60
2018-11-01T03:37:27.856Z,10.60
2018-11-01T03:39:57.307Z,10.60
2018-11-01T03:42:25.991Z,10.60
2018-11-01T03:44:55.370Z,10.60
2018-11-01T03:47:23.968Z,10.60
2018-11-01T03:49:52.571Z,10.60
2018-11-01T03:52:21.229Z,10.60
2018-11-01T03:54:49.789Z,10.60
2018-11-01T03:57:18.407Z,10.50
2018-11-01T03:59:47.032Z,10.50
2018-11-01T04:02:15.605Z,10.50
2018-11-01T04:04:45.109Z,10.40
2018-11-01T04:07:14.185Z,10.40
2018-11-01T04:09:42.754Z,10.40
2018-11-01T04:12:11.370Z,10.30
2018-11-01T04:14:39.992Z,10.30
2018-11-01T04:17:09.034Z,10.20
2018-11-01T04:19:37.596Z,10.20
2018-11-01T04:22:07.201Z,10.20
2018-11-01T04:24:37.067Z,10.20
2018-11-01T04:27:06.112Z,10.20
2018-11-01T04:29:35.917Z,10.10
2018-11-01T04:32:05.102Z,10.10
2018-11-01T04:34:34.599Z,10.00
2018-11-01T04:37:03.210Z,10.00
2018-11-01T04:39:32.111Z,10.00
2018-11-01T04:42:00.676Z,10.00
2018-11-01T04:44:29.428Z,10.00
2018-11-01T04:46:58.214Z,9.90
2018-11-01T04:49:26.973Z,9.90
2018-11-01T04:51:55.948Z,9.90
2018-11-01T04:54:24.574Z,9.80
2018-11-01T04:56:53.132Z,9.80
2018-11-01T04:59:21.708Z,9.70
2018-11-01T05:01:50.263Z,9.70
2018-11-01T05:04:19.106Z,9.70
2018-11-01T05:06:47.720Z,9.70
2018-11-01T05:09:16.348Z,9.60
2018-11-01T05:11:45.115Z,9.60
2018-11-01T05:14:15.025Z,9.60
2018-11-01T05:16:44.854Z,9.60
2018-11-01T05:19:13.493Z,9.60
2018-11-01T05:21:42.135Z,9.60
2018-11-01T05:24:10.747Z,9.50
2018-11-01T05:26:39.453Z,9.50
2018-11-01T05:29:08.153Z,9.50
2018-11-01T05:31:36.776Z,9.50
2018-11-01T05:34:05.778Z,9.40
2018-11-01T05:36:34.496Z,9.40
2018-11-01T05:39:03.719Z,9.40
2018-11-01T05:41:32.352Z,9.40
2018-11-01T05:44:00.955Z,9.40
2018-11-01T05:46:29.731Z,9.40
2018-11-01T05:48:58.375Z,9.40
2018-11-01T05:51:27.075Z,9.40
2018-11-01T05:53:56.331Z,9.30
2018-11-01T05:56:24.907Z,9.30
2018-11-01T05:58:53.552Z,9.30
2018-11-01T06:01:27.623Z,9.30
2018-11-01T06:03:56.273Z,9.30
2018-11-01T06:06:25.203Z,9.30
2018-11-01T06:08:53.961Z,9.30
2018-11-01T06:11:22.648Z,9.30
2018-11-01T06:13:51.368Z,9.30
2018-11-01T06:16:20.698Z,9.30
2018-11-01T06:18:49.414Z,9.30
2018-11-01T06:21:18.230Z,9.30
2018-11-01T06:23:46.890Z,9.30
2018-11-01T06:26:16.724Z,9.30
2018-11-01T06:28:45.344Z,9.30
2018-11-01T06:31:13.964Z,9.30
2018-11-01T06:33:42.657Z,9.30
2018-11-01T06:36:14.350Z,9.30
2018-11-01T06:38:43.037Z,9.30
2018-11-01T06:41:11.753Z,9.30
2018-11-01T06:43:41.837Z,9.30
2018-11-01T06:46:12.644Z,9.40
2018-11-01T06:48:43.407Z,9.40
2018-11-01T06:51:15.180Z,9.40
2018-11-01T06:53:44.414Z,9.40
2018-11-01T06:56:13.441Z,9.50
2018-11-01T06:58:42.705Z,9.50
2018-11-01T07:01:18.798Z,9.50
2018-11-01T07:03:49.675Z,9.50
2018-11-01T07:06:19.890Z,9.50
2018-11-01T07:08:55.758Z,9.50
2018-11-01T07:11:25.791Z,9.50
2018-11-01T07:13:54.404Z,9.50
2018-11-01T07:16:24.511Z,9.50
2018-11-01T07:18:53.357Z,9.60
2018-11-01T07:21:23.830Z,9.60
2018-11-01T07:23:54.251Z,9.60
2018-11-01T07:26:23.053Z,9.60
2018-11-01T07:28:53.465Z,9.60
2018-11-01T07:31:23.488Z,9.60
2018-11-01T07:33:53.916Z,9.70
2018-11-01T07:36:28.148Z,9.70
2018-11-01T07:39:00.323Z,9.60
2018-11-01T07:41:29.090Z,9.60
2018-11-01T07:44:00.738Z,9.60
2018-11-01T07:46:36.721Z,9.60
2018-11-01T07:49:08.650Z,9.60
2018-11-01T07:51:37.377Z,9.60
2018-11-01T07:54:06.040Z,9.70
2018-11-01T07:56:34.736Z,9.70
2018-11-01T07:59:04.101Z,9.70
2018-11-01T08:01:34.930Z,9.70
2018-11-01T08:04:04.685Z,9.80
2018-11-01T08:06:33.367Z,9.80
2018-11-01T08:09:02.343Z,9.80
2018-11-01T08:11:31.875Z,9.90
2018-11-01T08:14:00.925Z,9.90
2018-11-01T08:16:30.092Z,9.90
2018-11-01T08:18:58.717Z,10.00
2018-11-01T08:21:27.381Z,10.10
2018-11-01T08:23:56.097Z,10.10
2018-11-01T08:26:24.769Z,10.20
2018-11-01T08:28:53.635Z,10.20
2018-11-01T08:31:22.302Z,10.20
2018-11-01T08:33:52.223Z,10.30
2018-11-01T08:36:21.654Z,10.30
2018-11-01T08:38:51.710Z,10.30
2018-11-01T08:41:21.148Z,10.30
2018-11-01T08:43:52.844Z,10.40
2018-11-01T08:46:21.431Z,10.40
2018-11-01T08:48:50.339Z,10.50
2018-11-01T08:51:19.937Z,10.50
2018-11-01T08:53:48.762Z,10.60
2018-11-01T08:56:17.766Z,10.60
2018-11-01T08:58:46.420Z,10.60
2018-11-01T09:01:15.085Z,10.70
2018-11-01T09:03:45.007Z,10.80
2018-11-01T09:06:14.037Z,10.80
2018-11-01T09:08:43.713Z,10.90
2018-11-01T09:11:12.365Z,10.90
2018-11-01T09:13:41.910Z,11.00
2018-11-01T09:16:10.586Z,11.10
2018-11-01T09:18:39.229Z,11.10
2018-11-01T09:21:07.906Z,11.20
2018-11-01T09:23:36.547Z,11.30
2018-11-01T09:26:05.485Z,11.30
2018-11-01T09:28:34.209Z,11.30
2018-11-01T09:31:07.592Z,11.40
2018-11-01T09:33:36.250Z,11.40
2018-11-01T09:36:09.166Z,11.50
2018-11-01T09:38:39.037Z,11.60
2018-11-01T09:41:07.644Z,11.60
2018-11-01T09:43:36.850Z,11.70
2018-11-01T09:46:06.136Z,11.80
2018-11-01T09:48:34.648Z,11.80
2018-11-01T09:51:03.572Z,11.90
2018-11-01T09:53:35.093Z,11.90
2018-11-01T09:56:03.888Z,11.90
2018-11-01T09:58:41.257Z,11.90
2018-11-01T10:01:09.932Z,11.90
2018-11-01T10:03:39.600Z,11.90
2018-11-01T10:06:10.603Z,12.00
2018-11-01T10:08:39.353Z,12.00
2018-11-01T10:11:08.064Z,12.00
2018-11-01T10:13:37.006Z,12.10
2018-11-01T10:16:05.766Z,12.10
2018-11-01T10:18:34.411Z,12.20
2018-11-01T10:21:03.056Z,12.30
2018-11-01T10:23:31.643Z,12.30
2018-11-01T10:26:00.225Z,12.40
2018-11-01T10:28:28.881Z,12.40
2018-11-01T10:30:57.531Z,12.50
2018-11-01T10:33:26.121Z,12.50
2018-11-01T10:35:55.244Z,12.50
2018-11-01T10:38:23.895Z,12.50
2018-11-01T10:40:52.529Z,12.60
2018-11-01T10:43:21.124Z,12.60
2018-11-01T10:45:49.761Z,12.70
2018-11-01T10:48:18.346Z,12.70
2018-11-01T10:50:48.058Z,12.70
2018-11-01T10:53:16.590Z,12.70
2018-11-01T10:55:45.184Z,12.70
2018-11-01T10:58:13.824Z,12.70
2018-11-01T11:00:47.987Z,12.70
2018-11-01T11:03:16.504Z,12.70
2018-11-01T11:05:45.078Z,12.70
2018-11-01T11:08:14.827Z,12.80
2018-11-01T11:10:43.395Z,12.80
2018-11-01T11:13:12.776Z,12.90
2018-11-01T11:15:41.377Z,12.90
2018-11-01T11:18:09.990Z,13.00
2018-11-01T11:20:43.276Z,13.00
2018-11-01T11:23:12.550Z,13.10
2018-11-01T11:25:41.195Z,13.10
2018-11-01T11:28:09.825Z,13.10
2018-11-01T11:30:38.500Z,13.10
2018-11-01T11:33:07.099Z,13.10
2018-11-01T11:35:35.819Z,13.20
2018-11-01T11:38:04.414Z,13.10
2018-11-01T11:40:33.848Z,13.20
2018-11-01T11:43:11.056Z,13.10
2018-11-01T11:45:42.820Z,13.10
2018-11-01T11:48:11.517Z,13.00
2018-11-01T11:50:40.125Z,13.00
2018-11-01T11:53:08.777Z,13.00
2018-11-01T11:55:37.483Z,13.10
2018-11-01T11:58:06.405Z,13.10
2018-11-01T12:00:35.424Z,13.10
2018-11-01T12:03:04.229Z,13.20
2018-11-01T12:05:34.174Z,13.20
2018-11-01T12:08:02.975Z,13.20
2018-11-01T12:10:32.865Z,13.20
2018-11-01T12:13:01.820Z,13.20
2018-11-01T12:15:30.904Z,13.10
2018-11-01T12:17:59.896Z,13.10
2018-11-01T12:20:28.870Z,13.10
2018-11-01T12:22:58.160Z,13.00
2018-11-01T12:25:27.054Z,13.00
2018-11-01T12:27:56.510Z,13.00
2018-11-01T12:30:25.182Z,13.00
2018-11-01T12:32:53.861Z,13.00
2018-11-01T12:35:23.585Z,13.00
2018-11-01T12:37:52.456Z,13.00
2018-11-01T12:40:21.327Z,13.00
2018-11-01T12:42:50.173Z,13.00
2018-11-01T12:45:19.547Z,13.00
2018-11-01T12:47:48.679Z,13.00
2018-11-01T12:50:17.910Z,12.90
2018-11-01T12:52:46.687Z,12.90
2018-11-01T12:55:15.689Z,12.90
2018-11-01T12:57:44.585Z,12.90
2018-11-01T13:00:13.914Z,12.80
2018-11-01T13:02:42.982Z,12.80
2018-11-01T13:05:13.735Z,12.80
2018-11-01T13:07:42.493Z,12.80
2018-11-01T13:10:16.255Z,12.80
2018-11-01T13:12:45.556Z,12.70
2018-11-01T13:15:16.249Z,12.70
2018-11-01T13:17:45.223Z,12.70
2018-11-01T13:20:13.970Z,12.70
2018-11-01T13:22:43.416Z,12.70
2018-11-01T13:25:12.645Z,12.70
2018-11-01T13:27:42.297Z,12.70
2018-11-01T13:30:14.090Z,12.60
2018-11-01T13:32:44.638Z,12.60
2018-11-01T13:35:16.203Z,12.60
2018-11-01T13:37:45.237Z,12.50
2018-11-01T13:40:14.230Z,12.50
2018-11-01T13:42:45.162Z,12.50
2018-11-01T13:45:14.263Z,12.40
2018-11-01T13:47:43.591Z,12.40
2018-11-01T13:50:13.176Z,12.30
2018-11-01T13:52:45.325Z,12.30
2018-11-01T13:55:14.382Z,12.30
2018-11-01T13:57:43.245Z,12.30
2018-11-01T14:00:13.562Z,12.20
2018-11-01T14:02:42.809Z,12.10
2018-11-01T14:05:15.830Z,12.10
2018-11-01T14:07:46.406Z,12.10
2018-11-01T14:10:15.983Z,12.10
2018-11-01T14:12:44.716Z,12.10
2018-11-01T14:15:13.732Z,12.10
2018-11-01T14:17:42.394Z,12.00
2018-11-01T14:20:12.369Z,12.00
2018-11-01T14:22:41.287Z,11.90
2018-11-01T14:25:11.087Z,11.80
2018-11-01T14:27:39.968Z,11.80
2018-11-01T14:30:11.562Z,11.70
2018-11-01T14:32:40.763Z,11.70
2018-11-01T14:35:09.978Z,11.70
2018-11-01T14:37:38.659Z,11.60
2018-11-01T14:40:09.196Z,11.60
2018-11-01T14:42:38.208Z,11.60
2018-11-01T14:45:07.258Z,11.50
2018-11-01T14:47:35.998Z,11.50
2018-11-01T14:50:06.627Z,11.40
2018-11-01T14:52:35.878Z,11.40
2018-11-01T14:55:05.446Z,11.40
2018-11-01T14:57:33.882Z,11.40
2018-11-01T15:00:01.764Z,11.40
2018-11-01T15:02:30.476Z,11.40
2018-11-01T15:04:59.184Z,11.40
2018-11-01T15:07:27.845Z,11.40
2018-11-01T15:09:56.555Z,11.40
2018-11-01T15:12:26.762Z,11.30
2018-11-01T15:14:55.473Z,11.30
2018-11-01T15:17:24.185Z,11.30
2018-11-01T15:19:52.841Z,11.30
2018-11-01T15:22:21.519Z,11.30
2018-11-01T15:24:50.180Z,11.30
2018-11-01T15:27:19.022Z,11.20
2018-11-01T15:29:48.811Z,11.20
2018-11-01T15:32:22.722Z,11.20
2018-11-01T15:34:51.402Z,11.10
2018-11-01T15:37:20.517Z,11.10
2018-11-01T15:39:51.344Z,11.10
2018-11-01T15:42:21.259Z,11.10
2018-11-01T15:44:53.264Z,11.00
2018-11-01T15:47:22.219Z,11.00
2018-11-01T15:49:51.081Z,11.00
2018-11-01T15:52:19.905Z,11.00
2018-11-01T15:54:48.848Z,11.00
2018-11-01T15:57:17.761Z,11.00
2018-11-01T15:59:46.547Z,11.00
2018-11-01T16:02:15.428Z,11.00
2018-11-01T16:04:44.215Z,11.00
2018-11-01T16:07:12.860Z,11.00
2018-11-01T16:09:42.493Z,11.00
2018-11-01T16:12:11.340Z,11.00
2018-11-01T16:14:39.946Z,11.00
2018-11-01T16:17:08.567Z,11.00
2018-11-01T16:19:37.284Z,11.00
2018-11-01T16:22:05.831Z,11.00
2018-11-01T16:24:34.521Z,11.00
2018-11-01T16:27:03.397Z,11.00
2018-11-01T16:29:32.730Z,11.00
2018-11-01T16:32:01.413Z,11.00
2018-11-01T16:34:30.117Z,11.00
2018-11-01T16:36:58.798Z,11.00
2018-11-01T16:39:27.686Z,11.00
2018-11-01T16:41:56.320Z,10.90
2018-11-01T16:44:24.889Z,10.90
2018-11-01T16:46:53.588Z,10.90
2018-11-01T16:49:22.209Z,10.90
2018-11-01T16:51:50.757Z,10.90
2018-11-01T16:54:19.465Z,10.90
2018-11-01T16:56:48.068Z,10.90
2018-11-01T16:59:16.729Z,10.80
2018-11-01T17:01:45.364Z,10.90
2018-11-01T17:04:13.926Z,10.80
2018-11-01T17:06:44.513Z,10.80
2018-11-01T17:09:13.159Z,10.80
2018-11-01T17:11:41.763Z,10.80
2018-11-01T17:14:10.415Z,10.80
2018-11-01T17:16:39.766Z,10.80
2018-11-01T17:19:09.073Z,10.80
2018-11-01T17:21:38.118Z,10.80
2018-11-01T17:24:06.849Z,10.80
2018-11-01T17:26:35.443Z,10.80
2018-11-01T17:29:04.193Z,10.70
2018-11-01T17:31:32.852Z,10.70
2018-11-01T17:34:01.534Z,10.70
2018-11-01T17:36:30.169Z,10.70
2018-11-01T17:38:58.840Z,10.70
2018-11-01T17:41:27.556Z,10.70
2018-11-01T17:43:56.396Z,10.60
2018-11-01T17:46:25.140Z,10.60
2018-11-01T17:48:53.778Z,10.60
2018-11-01T17:51:22.507Z,10.70
2018-11-01T17:53:51.169Z,10.60
2018-11-01T17:56:20.741Z,10.60
2018-11-01T17:58:49.465Z,10.60
2018-11-01T18:01:18.713Z,10.60
2018-11-01T18:03:48.288Z,10.70
2018-11-01T18:06:17.123Z,10.70
2018-11-01T18:08:46.002Z,10.60
2018-11-01T18:11:22.200Z,10.60
2018-11-01T18:13:52.817Z,10.60
2018-11-01T18:16:21.480Z,10.60
2018-11-01T18:18:50.148Z,10.60
2018-11-01T18:21:18.704Z,10.50
2018-11-01T18:23:47.364Z,10.60
2018-11-01T18:26:16.026Z,10.50
2018-11-01T18:28:44.659Z,10.50
2018-11-01T18:31:13.268Z,10.50
2018-11-01T18:33:42.254Z,10.40
2018-11-01T18:36:10.901Z,10.40
2018-11-01T18:38:39.608Z,10.40
2018-11-01T18:41:08.540Z,10.30
2018-11-01T18:43:37.397Z,10.30
2018-11-01T18:46:07.415Z,10.20
2018-11-01T18:48:37.072Z,10.20
2018-11-01T18:51:06.387Z,10.20
2018-11-01T18:53:35.458Z,10.10
2018-11-01T18:56:05.961Z,10.10
2018-11-01T18:58:34.823Z,10.10
2018-11-01T19:01:03.629Z,10.00
2018-11-01T19:03:33.183Z,10.00
2018-11-01T19:06:02.839Z,10.10
2018-11-01T19:08:32.353Z,10.10
2018-11-01T19:11:01.952Z,10.10
2018-11-01T19:13:30.759Z,10.10
2018-11-01T19:15:59.675Z,10.10
2018-11-01T19:18:28.301Z,10.10
2018-11-01T19:20:57.053Z,10.20
2018-11-01T19:23:25.859Z,10.20
2018-11-01T19:25:54.657Z,10.20
2018-11-01T19:28:23.393Z,10.20
2018-11-01T19:30:52.125Z,10.20
2018-11-01T19:33:20.923Z,10.20
2018-11-01T19:35:49.663Z,10.20
2018-11-01T19:38:18.315Z,10.30
2018-11-01T19:40:46.969Z,10.30
2018-11-01T19:43:15.700Z,10.30
2018-11-01T19:45:44.405Z,10.30
2018-11-01T19:48:13.211Z,10.40
2018-11-01T19:50:42.129Z,10.40
2018-11-01T19:53:10.861Z,10.40
2018-11-01T19:55:39.524Z,10.40
2018-11-01T19:58:08.910Z,10.30
2018-11-01T20:00:37.578Z,10.40
2018-11-01T20:03:06.297Z,10.40
2018-11-01T20:05:35.077Z,10.40
2018-11-01T20:08:03.838Z,10.40
2018-11-01T20:10:32.609Z,10.30
2018-11-01T20:13:01.373Z,10.40
2018-11-01T20:15:30.791Z,10.30
2018-11-01T20:17:59.547Z,10.30
2018-11-01T20:20:28.480Z,10.30
2018-11-01T20:22:57.135Z,10.30
2018-11-01T20:25:25.905Z,10.30
2018-11-01T20:27:54.691Z,10.30
2018-11-01T20:30:23.510Z,10.30
2018-11-01T20:32:52.296Z,10.30
2018-11-01T20:35:21.106Z,10.30
2018-11-01T20:37:50.571Z,10.30
2018-11-01T20:40:20.340Z,10.30
2018-11-01T20:42:49.230Z,10.30
2018-11-01T20:45:18.194Z,10.30
2018-11-01T20:47:47.454Z,10.40
2018-11-01T20:50:16.372Z,10.40
2018-11-01T20:52:45.080Z,10.40
2018-11-01T20:55:13.745Z,10.40
2018-11-01T20:57:42.554Z,10.40
2018-11-01T21:00:13.327Z,10.50
2018-11-01T21:02:42.593Z,10.50
2018-11-01T21:05:11.635Z,10.50
2018-11-01T21:07:41.207Z,10.50
2018-11-01T21:10:10.925Z,10.50
2018-11-01T21:12:40.180Z,10.60
2018-11-01T21:15:11.013Z,10.60
2018-11-01T21:17:39.854Z,10.60
2018-11-01T21:20:08.722Z,10.60
2018-11-01T21:22:38.202Z,10.60
2018-11-01T21:25:07.831Z,10.70
2018-11-01T21:27:36.752Z,10.70
2018-11-01T21:30:05.826Z,10.70
2018-11-01T21:32:34.445Z,10.70
2018-11-01T21:35:03.638Z,10.80
2018-11-01T21:37:32.304Z,10.80
2018-11-01T21:40:00.936Z,10.80
2018-11-01T21:42:29.604Z,10.90
2018-11-01T21:44:58.978Z,10.90
2018-11-01T21:47:27.651Z,10.90
2018-11-01T21:49:56.358Z,10.90
2018-11-01T21:52:32.204Z,10.90
2018-11-01T21:55:00.952Z,10.90
2018-11-01T21:57:29.583Z,10.90
2018-11-01T21:59:58.155Z,10.90
2018-11-01T22:02:26.724Z,10.90
2018-11-01T22:04:55.666Z,11.00
2018-11-01T22:07:24.194Z,11.00
2018-11-01T22:09:52.886Z,11.00
2018-11-01T22:12:21.374Z,11.00
2018-11-01T22:14:50.064Z,11.00
2018-11-01T22:17:18.794Z,11.00
2018-11-01T22:19:47.391Z,11.00
2018-11-01T22:22:16.940Z,10.90
2018-11-01T22:24:45.613Z,11.00
2018-11-01T22:27:14.285Z,11.00
2018-11-01T22:29:43.803Z,11.00
2018-11-01T22:32:12.461Z,11.00
2018-11-01T22:34:42.179Z,11.00
2018-11-01T22:37:10.768Z,11.00
2018-11-01T22:39:39.407Z,11.00
2018-11-01T22:42:08.525Z,11.00
2018-11-01T22:44:41.167Z,11.00
2018-11-01T22:47:09.804Z,11.00
2018-11-01T22:49:38.860Z,11.00
2018-11-01T22:52:08.060Z,11.00
2018-11-01T22:54:36.697Z,11.00
2018-11-01T22:57:05.498Z,11.00
2018-11-01T22:59:34.211Z,10.90
2018-11-01T23:02:02.841Z,11.00
2018-11-01T23:04:31.442Z,11.00
2018-11-01T23:07:00.097Z,11.00
2018-11-01T23:09:28.838Z,11.00
2018-11-01T23:11:58.222Z,11.00
2018-11-01T23:14:26.853Z,11.00
2018-11-01T23:16:55.521Z,11.00
2018-11-01T23:19:24.219Z,11.00
2018-11-01T23:21:52.841Z,11.10
2018-11-01T23:24:21.901Z,11.10
2018-11-01T23:26:50.556Z,11.00
2018-11-01T23:29:19.147Z,11.00
2018-11-01T23:31:48.376Z,11.00
2018-11-01T23:34:16.952Z,11.10
2018-11-01T23:36:50.946Z,11.10
2018-11-01T23:39:25.128Z,11.10
2018-11-01T23:41:59.852Z,11.10
2018-11-01T23:44:33.790Z,11.00
2018-11-01T23:47:07.640Z,11.10
2018-11-01T23:49:56.382Z,11.10
2018-11-01T23:52:26.766Z,11.10
2018-11-01T23:54:55.413Z,11.10
2018-11-01T23:57:24.050Z,11.10
2018-11-01T23:59:52.728Z,11.10
